• Join FlightAware (Why Join?)
  • Login
  • US Flag 
02:34PM EST


 

Airport Tracker/Info


-or-


 

Live Flight TrackerFlight Track Log ✈ SAS4139 ✈ 28-Oct-2013 ✈ ENAL / AES - ENBR / BGO

Flight Track Log - Related Links

Times and Time Zones

All times are in EDT time to prevent confusion due to time zone crossing. See the SAS4139 flight status page for this flight to view local times or setup timezone preferences in your user account.

Time Position Orientation Groundspeed Altitude Reporting Facility
EDT Latitude Longitude Course Direction KTS MPH feet Rate Location/Type
02:28AM 62.5590 6.1140 320° Northwest  Level FlightAware
02:31AM 62.3305 6.0174 191° South  Level Estimated
02:34AM 62.5630 6.1200 247° West 92 106  Level FlightAware
02:35AM 62.5520 6.0700 245° Southwest 159 183 1,900 2,348 Climbing FlightAware
02:35AM 62.5410 6.0240 243° Southwest 198 228 2,700 2,432 Climbing FlightAware
02:36AM 62.5230 5.9360 246° West 255 293 4,900 3,514 Climbing FlightAware
02:36AM 62.5000 5.8930 221° Southwest 259 298 6,800 4,313 Climbing FlightAware
02:37AM 62.4550 5.8740 191° South 271 312 9,500 4,265 Climbing FlightAware
02:38AM 62.3980 5.8450 193° South 281 323 12,700 3,740 Climbing FlightAware
02:38AM 62.3560 5.8210 195° South 309 356 14,300 3,231 Climbing FlightAware
02:39AM 62.2700 5.7740 194° South 334 384 17,600 3,537 Climbing FlightAware
02:40AM 62.2160 5.7440 195° South 337 388 19,900 3,635 Climbing FlightAware
02:41AM 62.1160 5.6910 194° South 328 377 23,900 2,343 Climbing FlightAware
02:42AM 62.0610 5.6610 194° South 330 380 24,000 86 Climbing FlightAware
02:42AM 62.0130 5.6350 194° South 331 381 24,000  Level FlightAware
02:43AM 61.9710 5.6130 194° South 333 383 24,000  Level FlightAware
02:44AM 61.8800 5.5650 194° South 333 383 24,000  Level FlightAware
02:45AM 61.7790 5.5110 194° South 333 383 24,000  Level FlightAware
02:46AM 61.6900 5.4640 194° South 333 383 24,000  Level FlightAware
02:47AM 61.5980 5.4160 194° South 335 386 24,000  Level FlightAware
02:47AM 61.5460 5.3890 194° South 333 383 24,000 -270 Level FlightAware
02:48AM 61.4660 5.3470 194° South 323 372 23,600 -759 Descending FlightAware
02:49AM 61.4320 5.3300 193° South 319 367 23,000 -1,967 Descending FlightAware
02:49AM 61.3780 5.3020 194° South 324 373 21,600 -2,113 Descending FlightAware
02:50AM 61.3280 5.2770 193° South 321 369 20,500 -1,944 Descending FlightAware
02:50AM 61.2760 5.2500 194° South 318 366 19,300 -1,938 Descending FlightAware
02:51AM 61.2360 5.2290 194° South 316 364 18,400 -1,946 Descending FlightAware
02:52AM 61.1700 5.2030 191° South 318 366 16,900 -1,935 Descending FlightAware
02:52AM 61.1020 5.1990 182° South 310 357 15,400 -1,846 Descending FlightAware
02:53AM 61.0590 5.1960 182° South 308 354 14,500 -1,826 Descending FlightAware
02:54AM 61.0040 5.1930 182° South 304 350 13,300 -1,826 Descending FlightAware
02:54AM 60.9620 5.1900 182° South 301 346 12,400 -1,765 Descending FlightAware
02:55AM 60.9100 5.1860 182° South 293 337 11,300 -1,378 Descending FlightAware
02:55AM 60.8620 5.1830 182° South 273 314 10,700 -917 Descending FlightAware
02:56AM 60.8200 5.1800 182° South 256 295 10,200 -952 Descending FlightAware
02:56AM 60.7870 5.1780 182° South 252 290 9,700 -1,138 Descending FlightAware
02:57AM 60.7520 5.1760 182° South 250 288 9,100 -1,406 Descending FlightAware
02:57AM 60.7130 5.1730 182° South 246 283 8,200 -1,521 Descending FlightAware
02:58AM 60.6710 5.1700 182° South 246 283 7,300 -1,371 Descending FlightAware
02:59AM 60.6350 5.1680 182° South 242 278 6,600 -1,385 Descending FlightAware
02:59AM 60.5980 5.1650 182° South 239 275 5,800 -1,400 Descending FlightAware
03:00AM 60.5670 5.1630 182° South 237 273 5,200 -971 Descending FlightAware
03:00AM 60.5260 5.1600 182° South 216 249 4,700 -667 Descending FlightAware
03:01AM 60.4950 5.1580 182° South 205 236 4,400 -514 Descending FlightAware
03:01AM 60.4610 5.1620 177° South 193 222 4,100 -486 Descending FlightAware
03:02AM 60.4290 5.1720 171° South 184 212 3,800 -700 Descending FlightAware
03:02AM 60.4070 5.1800 170° South 179 206 3,400 -1,000 Descending FlightAware
03:03AM 60.3850 5.1870 171° South 150 173 2,900 -800 Descending FlightAware
03:03AM 60.3660 5.1940 170° South 113 130 2,600 -700 Descending FlightAware
03:04AM 60.3500 5.1990 171° South 120 138 2,200 -716 Descending FlightAware
03:05AM 60.3320 5.2050 171° South 114 131 1,800 -640 Descending FlightAware
03:05AM 60.3090 5.2130 170° South 115 132 1,400 -632 Descending FlightAware